Terminal Aerodrome Forecast
Issued by NWS Wilmington, NC

Home | Current Version | Previous Version | Text Only | Print | Product List | Glossary On
Versions: 1 2 3 4 5 6 7 8 9 10 11 12 13 14 15 16 17 18 19
284
FTUS42 KILM 081724
TAFILM
TAF
KILM 081724Z 0818/0918 17008KT P6SM FEW250
     FM082000 22013G20KT P6SM SCT120 BKN250
     FM082300 23011G18KT P6SM BKN100
      TEMPO 0823/0902 6SM -SHRA BKN060 OVC080
     FM090200 26010G15KT P6SM BKN060
     FM090600 26015G20KT P6SM SCT250
     FM091300 26018G25KT P6SM SCT050 BKN100=

USA.gov is the U.S. government's official web portal to all federal, state and local government web resources and services.